Time;durP1;ratioP1;P1;durP2;ratioP2;P2;SDS_P1;SDS_P2;PMS_P1;PMS_P2;Temp;Humidity;BMP_temperature;BMP_pressure;BME280_temperature;BME280_humidity;BME280_pressure;Samples;Min_cycle;Max_cycle;Signal;HPM_P1;HPM_P2
2021/11/14 00:01:58;;;;;;;26.92;20.08;;;;;;;9.02;81.76;99901.34;5076981;28;20071;-63
2021/11/14 00:04:24;;;;;;;32.88;21.17;;;;;;;9.04;81.71;99909.97;5077351;28;20392;-64
2021/11/14 00:06:49;;;;;;;33.38;22.42;;;;;;;9.03;81.57;99900.50;5076635;28;20029;-63
2021/11/14 00:09:16;;;;;;;34.60;22.65;;;;;;;9.04;81.73;99907.41;5076850;28;20041;-63
2021/11/14 00:11:42;;;;;;;35.05;23.63;;;;;;;9.05;81.52;99907.44;5059170;28;20037;-63
2021/11/14 00:14:07;;;;;;;29.83;21.08;;;;;;;9.04;81.45;99916.03;5076080;28;20395;-64
2021/11/14 00:16:33;;;;;;;31.67;20.83;;;;;;;9.05;81.84;99919.47;5077053;28;20028;-64
2021/11/14 00:18:59;;;;;;;32.70;22.15;;;;;;;9.03;81.65;99911.72;5076982;28;20044;-63
2021/11/14 00:21:26;;;;;;;37.47;23.85;;;;;;;9.04;81.51;99912.56;5058962;28;20043;-64
2021/11/14 00:23:53;;;;;;;36.53;24.27;;;;;;;9.04;81.82;99910.88;5058944;28;20039;-64
2021/11/14 00:26:19;;;;;;;33.85;22.58;;;;;;;9.03;81.67;99914.28;5058949;28;20036;-63
2021/11/14 00:28:45;;;;;;;33.83;23.42;;;;;;;9.03;81.50;99914.28;5076532;28;20094;-64
2021/11/14 00:31:14;;;;;;;36.90;24.73;;;;;;;9.03;81.69;99914.28;5076608;28;20479;-63
2021/11/14 00:33:43;;;;;;;36.03;22.95;;;;;;;9.05;81.53;99916.91;5076533;28;20089;-63
2021/11/14 00:36:11;;;;;;;39.03;24.70;;;;;;;9.05;81.54;99919.47;5058416;28;20029;-63
2021/11/14 00:38:38;;;;;;;44.80;25.55;;;;;;;9.05;81.63;99916.91;5059145;28;20041;-63
2021/11/14 00:41:05;;;;;;;39.45;25.05;;;;;;;9.04;81.90;99916.03;5058852;28;20028;-63
2021/11/14 00:43:31;;;;;;;40.38;27.23;;;;;;;9.04;81.90;99921.22;5058816;28;20036;-63
2021/11/14 00:45:56;;;;;;;42.33;26.80;;;;;;;9.05;81.73;99924.66;5075171;28;20382;-64
2021/11/14 00:48:22;;;;;;;37.17;24.45;;;;;;;9.05;82.02;99917.78;5075075;28;20090;-63
2021/11/14 00:50:48;;;;;;;38.63;24.27;;;;;;;9.05;81.81;99917.78;5075089;28;20061;-64
2021/11/14 00:53:16;;;;;;;36.05;22.88;;;;;;;9.05;81.83;99927.25;5076540;28;20037;-63
2021/11/14 00:55:42;;;;;;;41.47;24.75;;;;;;;9.04;81.90;99926.38;5076095;28;20434;-63
2021/11/14 00:58:08;;;;;;;38.75;25.90;;;;;;;9.05;81.67;99929.81;5058494;28;20082;-63
2021/11/14 01:00:35;;;;;;;39.78;25.65;;;;;;;9.04;81.85;99931.56;5075136;28;20036;-63
2021/11/14 01:03:03;;;;;;;39.65;25.50;;;;;;;9.05;81.77;99930.72;5058138;28;20380;-63
2021/11/14 01:05:31;;;;;;;42.42;26.23;;;;;;;9.06;81.52;99932.47;5074120;28;20036;-64
2021/11/14 01:07:57;;;;;;;41.13;26.45;;;;;;;9.06;81.64;99934.16;5075685;28;20036;-63
2021/11/14 01:10:27;;;;;;;47.33;28.98;;;;;;;9.06;81.68;99936.75;5074499;28;20036;-63
2021/11/14 01:12:53;;;;;;;50.35;27.83;;;;;;;9.06;81.80;99935.03;5076020;28;20510;-64
2021/11/14 01:15:22;;;;;;;46.22;27.42;;;;;;;9.06;82.06;99937.63;5074514;28;20028;-64
2021/11/14 01:17:49;;;;;;;46.85;27.20;;;;;;;9.05;81.79;99938.47;5057748;28;20036;-64
2021/11/14 01:20:19;;;;;;;44.88;28.52;;;;;;;9.05;81.87;99938.47;5057573;28;20049;-64
2021/11/14 01:22:45;;;;;;;46.22;26.02;;;;;;;9.06;82.21;99939.31;5076455;28;20060;-63
2021/11/14 01:25:13;;;;;;;39.75;24.17;;;;;;;9.05;81.89;99946.22;5057787;28;20059;-63
2021/11/14 01:27:39;;;;;;;40.92;25.90;;;;;;;9.05;81.66;99943.63;5074942;28;20059;-63
2021/11/14 01:30:09;;;;;;;36.17;23.50;;;;;;;9.04;81.76;99946.16;5075717;28;20500;-63
2021/11/14 01:32:36;;;;;;;42.20;27.23;;;;;;;9.03;81.59;99953.06;5073902;28;20038;-64
2021/11/14 01:35:02;;;;;;;46.15;28.38;;;;;;;9.04;81.96;99953.94;5057587;28;20037;-64
2021/11/14 01:37:28;;;;;;;37.40;23.50;;;;;;;9.02;81.82;99951.31;5057639;28;20032;-64
2021/11/14 01:39:56;;;;;;;41.95;25.05;;;;;;;9.02;81.78;99956.50;5074530;28;20033;-63
2021/11/14 01:42:21;;;;;;;44.83;26.85;;;;;;;9.04;81.82;99956.50;5075255;28;20028;-63
2021/11/14 01:44:47;;;;;;;42.17;26.58;;;;;;;9.02;81.99;99953.91;5075205;28;20123;-64
2021/11/14 01:47:13;;;;;;;38.10;25.17;;;;;;;9.01;81.92;99952.16;5075355;28;20043;-64
2021/11/14 01:49:38;;;;;;;40.53;24.77;;;;;;;9.03;81.93;99952.22;5075553;28;20041;-63
2021/11/14 01:52:04;;;;;;;42.38;25.88;;;;;;;9.03;81.82;99954.78;5074094;28;20476;-63
2021/11/14 01:54:30;;;;;;;41.53;26.13;;;;;;;9.02;81.70;99951.31;5074805;28;20037;-63
2021/11/14 01:56:56;;;;;;;42.65;25.58;;;;;;;9.03;81.79;99954.78;5057291;28;20383;-63
2021/11/14 01:59:21;;;;;;;40.10;24.70;;;;;;;9.01;81.93;99959.91;5074861;28;20553;-64
2021/11/14 02:01:47;;;;;;;42.10;24.95;;;;;;;9.01;82.05;99961.66;5074998;28;20036;-64
2021/11/14 02:04:13;;;;;;;41.30;25.35;;;;;;;9.01;82.06;99962.50;5074992;28;20043;-64
2021/11/14 02:06:42;;;;;;;38.60;24.40;;;;;;;9.01;81.93;99962.50;5073580;28;20082;-64
2021/11/14 02:09:08;;;;;;;36.70;24.27;;;;;;;9.01;81.83;99966.81;5073306;28;20392;-63
2021/11/14 02:11:36;;;;;;;37.60;23.80;;;;;;;9.00;82.11;99963.34;5056658;28;20514;-63
2021/11/14 02:14:01;;;;;;;40.50;25.20;;;;;;;9.02;81.98;99963.41;5074766;28;20131;-64
2021/11/14 02:16:28;;;;;;;41.55;25.88;;;;;;;9.02;82.04;99974.59;5073309;28;20112;-64
2021/11/14 02:18:55;;;;;;;38.30;25.52;;;;;;;9.02;81.85;99971.16;5072287;28;20036;-63
2021/11/14 02:21:21;;;;;;;42.22;25.95;;;;;;;9.01;82.06;99972.84;5056856;28;20037;-63
2021/11/14 02:23:47;;;;;;;41.65;26.60;;;;;;;9.02;81.70;99973.72;5074772;28;20446;-63
2021/11/14 02:26:13;;;;;;;44.20;25.27;;;;;;;9.02;81.85;99977.19;5073317;28;20043;-64
2021/11/14 02:28:38;;;;;;;43.72;27.55;;;;;;;8.99;81.96;99985.75;5074028;28;20029;-64
2021/11/14 02:31:05;;;;;;;40.10;24.85;;;;;;;8.99;81.83;99982.28;5073920;28;20036;-63
2021/11/14 02:33:31;;;;;;;39.80;25.35;;;;;;;8.97;81.84;99979.66;5056482;28;20033;-63
2021/11/14 02:36:07;;;;;;;41.60;25.50;;;;;;;8.98;81.87;99990.88;5056415;28;20452;-63
2021/11/14 02:38:34;;;;;;;45.47;26.45;;;;;;;8.99;82.10;100000.38;5074552;28;20111;-64
2021/11/14 02:41:01;;;;;;;43.30;24.88;;;;;;;8.99;81.67;99998.66;5056342;28;20441;-65
2021/11/14 02:43:27;;;;;;;42.10;25.88;;;;;;;8.99;81.58;100003.84;5074311;28;20047;-64
2021/11/14 02:45:53;;;;;;;45.42;26.23;;;;;;;8.99;82.16;99997.78;5073877;28;20040;-65
2021/11/14 02:48:19;;;;;;;50.20;28.25;;;;;;;8.99;81.91;99997.78;5074117;28;20403;-64
2021/11/14 02:50:47;;;;;;;42.55;25.98;;;;;;;8.99;81.99;99990.03;5056177;28;20043;-64
2021/11/14 02:53:12;;;;;;;50.17;28.27;;;;;;;8.99;82.11;99997.78;5074060;28;20031;-64
2021/11/14 02:55:39;;;;;;;46.35;26.33;;;;;;;8.99;82.04;100003.84;5072375;28;20036;-64
2021/11/14 02:58:06;;;;;;;47.65;26.65;;;;;;;8.98;82.16;100006.38;5056445;28;20122;-63
2021/11/14 03:00:38;;;;;;;47.53;27.05;;;;;;;8.99;81.90;100011.59;5072572;28;20072;-64
2021/11/14 03:03:04;;;;;;;49.53;27.13;;;;;;;8.97;81.98;100009.78;5073386;28;20025;-63
2021/11/14 03:05:30;;;;;;;45.97;27.50;;;;;;;8.98;82.03;100012.44;5073590;28;20044;-64
2021/11/14 03:07:55;;;;;;;47.85;28.25;;;;;;;8.98;82.17;100008.97;5073362;28;20503;-63
2021/11/14 03:10:25;;;;;;;48.85;27.95;;;;;;;8.98;82.15;100014.13;5072124;28;20089;-63
2021/11/14 03:13:08;;;;;;;52.75;29.35;;;;;;;8.97;82.30;100009.78;5055094;28;20048;-64
2021/11/14 03:15:37;;;;;;;54.60;29.33;;;;;;;8.98;81.87;100014.13;5072665;28;20036;-64
2021/11/14 03:18:04;;;;;;;48.53;27.60;;;;;;;8.97;82.17;100013.28;5074085;28;20040;-63
2021/11/14 03:20:30;;;;;;;50.55;28.52;;;;;;;8.97;81.61;100017.56;5055647;28;20036;-64
2021/11/14 03:22:56;;;;;;;51.13;28.20;;;;;;;8.98;82.21;100015.03;5072201;28;20044;-63
2021/11/14 03:25:25;;;;;;;47.65;27.40;;;;;;;8.98;82.01;100014.13;5055633;28;20411;-64
2021/11/14 03:27:52;;;;;;;53.50;29.08;;;;;;;8.97;82.11;100015.84;5055324;28;20032;-64
2021/11/14 03:30:21;;;;;;;54.83;28.77;;;;;;;8.98;82.04;100021.88;5071892;28;20552;-64
2021/11/14 03:32:47;;;;;;;50.03;27.40;;;;;;;8.98;82.04;100017.59;5055501;28;20127;-64
2021/11/14 03:35:12;;;;;;;54.53;28.75;;;;;;;8.98;81.87;100017.59;5073593;28;20137;-63
2021/11/14 03:37:39;;;;;;;52.67;29.77;;;;;;;8.97;82.18;100022.72;5073256;28;20491;-64
2021/11/14 03:40:07;;;;;;;50.08;28.38;;;;;;;8.98;82.01;100024.47;5072140;28;20412;-64
2021/11/14 03:42:34;;;;;;;51.28;28.05;;;;;;;8.96;82.16;100027.03;5072895;28;20071;-64
2021/11/14 03:45:01;;;;;;;57.10;28.83;;;;;;;8.97;81.89;100025.31;5055739;28;20032;-63
2021/11/14 03:47:26;;;;;;;57.30;30.25;;;;;;;8.98;82.32;100032.22;5055375;28;20090;-63
2021/11/14 03:49:52;;;;;;;53.05;29.83;;;;;;;8.98;81.90;100038.28;5072249;28;20040;-62
2021/11/14 03:52:18;;;;;;;51.40;29.65;;;;;;;8.97;82.08;100038.22;5055172;28;20062;-63
2021/11/14 03:54:43;;;;;;;59.22;29.85;;;;;;;8.97;81.98;100038.22;5072071;28;20045;-64
2021/11/14 03:57:09;;;;;;;55.13;30.30;;;;;;;8.98;82.50;100040.88;5072070;28;20040;-64
2021/11/14 03:59:35;;;;;;;53.42;30.63;;;;;;;8.96;82.15;100044.25;5071983;28;20056;-63
2021/11/14 04:02:02;;;;;;;54.13;29.02;;;;;;;8.98;82.00;100048.63;5073148;28;20107;-64
2021/11/14 04:04:28;;;;;;;52.83;30.30;;;;;;;8.97;81.93;100049.47;5072263;28;20036;-64
2021/11/14 04:06:53;;;;;;;61.05;30.83;;;;;;;8.96;82.32;100052.88;5071791;28;20506;-65
2021/11/14 04:09:19;;;;;;;53.30;28.23;;;;;;;8.96;82.10;100050.31;5071546;28;20040;-64
2021/11/14 04:11:45;;;;;;;52.83;29.88;;;;;;;8.95;82.21;100058.88;5054806;28;20053;-65
2021/11/14 04:14:10;;;;;;;53.95;32.08;;;;;;;8.96;82.29;100052.88;5073415;28;20035;-64
2021/11/14 04:16:36;;;;;;;58.42;32.17;;;;;;;8.96;82.17;100057.16;5073286;28;20036;-65
2021/11/14 04:19:02;;;;;;;54.72;29.80;;;;;;;8.96;82.22;100057.16;5072104;28;20036;-64
2021/11/14 04:21:28;;;;;;;59.58;30.48;;;;;;;8.95;82.17;100056.31;5055103;28;20494;-64
2021/11/14 04:23:54;;;;;;;53.08;30.13;;;;;;;8.95;82.48;100051.13;5073082;28;20035;-66
2021/11/14 04:26:20;;;;;;;53.45;30.30;;;;;;;8.95;82.25;100056.31;5071795;28;20131;-64
2021/11/14 04:28:46;;;;;;;55.28;30.10;;;;;;;8.94;82.14;100059.72;5054957;28;20058;-64
2021/11/14 04:31:11;;;;;;;53.55;29.33;;;;;;;8.95;82.25;100060.63;5071919;28;20064;-64
2021/11/14 04:33:36;;;;;;;51.05;28.85;;;;;;;8.94;82.18;100059.72;5072496;28;20502;-63
2021/11/14 04:36:03;;;;;;;48.70;26.45;;;;;;;8.96;82.26;100059.75;5073041;28;20071;-63
2021/11/14 04:38:29;;;;;;;54.60;30.27;;;;;;;8.95;82.17;100066.66;5071280;28;20036;-64
2021/11/14 04:40:55;;;;;;;44.80;26.00;;;;;;;8.95;81.91;100065.78;5072975;28;20045;-63
2021/11/14 04:43:22;;;;;;;48.70;27.95;;;;;;;8.96;82.31;100076.16;5059243;28;20036;-64
2021/11/14 04:45:49;;;;;;;42.60;25.00;;;;;;;8.95;82.30;100071.81;5058509;28;20036;-63
2021/11/14 04:48:16;;;;;;;48.63;28.25;;;;;;;8.96;82.15;100078.72;5058480;28;20024;-63
2021/11/14 04:50:42;;;;;;;44.50;24.27;;;;;;;8.95;82.36;100082.16;5058720;28;20165;-64
2021/11/14 04:53:09;;;;;;;49.83;27.95;;;;;;;8.96;82.43;100080.44;5075251;28;20089;-63
2021/11/14 04:55:36;;;;;;;51.38;28.60;;;;;;;8.95;82.07;100083.88;5058386;28;20395;-64
2021/11/14 04:58:02;;;;;;;47.15;26.20;;;;;;;8.95;82.41;100081.28;5075138;28;20036;-64
2021/11/14 05:00:33;;;;;;;42.85;25.13;;;;;;;8.95;82.37;100083.88;5058157;28;20044;-64
2021/11/14 05:02:59;;;;;;;45.25;25.38;;;;;;;8.95;82.51;100087.31;5058601;28;20530;-64
2021/11/14 05:05:24;;;;;;;45.58;26.30;;;;;;;8.94;82.33;100087.31;5074657;28;20120;-64
2021/11/14 05:07:50;;;;;;;45.10;25.77;;;;;;;8.94;82.24;100084.72;5058148;28;20047;-64
2021/11/14 05:10:16;;;;;;;45.17;26.63;;;;;;;8.95;82.38;100094.22;5076041;28;20044;-64
2021/11/14 05:12:42;;;;;;;44.35;25.40;;;;;;;8.96;82.27;100093.34;5074523;28;20041;-64
2021/11/14 05:15:09;;;;;;;47.30;26.13;;;;;;;8.95;82.24;100102.84;5075840;28;20091;-64
2021/11/14 05:17:35;;;;;;;47.45;24.83;;;;;;;8.95;82.18;100094.22;5057708;28;20492;-64
2021/11/14 05:20:02;;;;;;;43.90;25.92;;;;;;;8.94;82.19;100105.41;5075721;28;20078;-65
2021/11/14 05:22:27;;;;;;;41.10;26.15;;;;;;;8.94;82.01;100105.41;5075340;28;20086;-66
2021/11/14 05:24:53;;;;;;;42.13;26.35;;;;;;;8.95;82.32;100105.41;5075527;28;20036;-65
2021/11/14 05:27:18;;;;;;;42.58;24.90;;;;;;;8.94;82.01;100110.56;5075931;28;20503;-64
2021/11/14 05:29:44;;;;;;;43.33;25.70;;;;;;;8.93;82.66;100109.69;5057632;28;20445;-64
2021/11/14 05:32:10;;;;;;;44.83;26.85;;;;;;;8.94;82.36;100110.56;5075670;28;20120;-63
2021/11/14 05:34:35;;;;;;;42.78;24.75;;;;;;;8.94;82.24;100118.31;5074676;28;20048;-63
2021/11/14 05:37:01;;;;;;;42.10;24.92;;;;;;;8.94;82.36;100110.56;5074381;28;20033;-64
2021/11/14 05:39:26;;;;;;;45.33;26.95;;;;;;;8.93;82.34;100117.44;5075080;28;20443;-64
2021/11/14 05:41:52;;;;;;;43.30;23.92;;;;;;;8.94;82.29;100116.59;5075843;28;20032;-63
2021/11/14 05:44:17;;;;;;;45.55;25.73;;;;;;;8.92;82.48;100118.25;5075440;28;20178;-63
2021/11/14 05:46:44;;;;;;;42.38;23.90;;;;;;;8.95;82.11;100128.69;5057426;28;20068;-64
2021/11/14 05:49:10;;;;;;;42.60;25.92;;;;;;;8.93;82.07;100122.59;5074144;28;20036;-63
2021/11/14 05:51:39;;;;;;;41.55;25.25;;;;;;;8.93;82.24;100119.16;5074031;28;20063;-64
2021/11/14 05:54:05;;;;;;;41.75;25.73;;;;;;;8.92;82.36;100118.25;5075005;28;20506;-64
2021/11/14 05:56:31;;;;;;;50.45;26.52;;;;;;;8.93;82.40;100119.16;5075087;28;20115;-63
2021/11/14 05:59:06;;;;;;;48.42;27.77;;;;;;;8.93;82.32;100127.78;5073865;28;20120;-63
2021/11/14 06:04:38;;;;;;;44.88;25.98;;;;;;;8.93;82.32;100132.09;5051695;28;20044;-63
2021/11/14 06:07:04;;;;;;;49.75;26.80;;;;;;;8.93;82.14;100138.09;5074869;28;20043;-64
2021/11/14 06:09:29;;;;;;;47.85;26.48;;;;;;;8.92;82.44;100144.13;5073728;28;20482;-63
2021/11/14 06:11:55;;;;;;;43.70;27.30;;;;;;;8.92;82.32;100146.69;5074801;28;20519;-63
2021/11/14 06:14:21;;;;;;;46.70;26.52;;;;;;;8.94;82.37;100155.38;5056987;28;20036;-64
2021/11/14 06:16:46;;;;;;;45.10;25.40;;;;;;;8.93;82.28;100152.75;5074575;28;20037;-63
2021/11/14 06:19:12;;;;;;;43.33;25.33;;;;;;;8.91;82.07;100157.88;5074611;28;20029;-64
2021/11/14 06:21:37;;;;;;;43.22;27.08;;;;;;;8.92;82.15;100153.59;5074910;28;20067;-64
2021/11/14 06:24:04;;;;;;;46.85;26.08;;;;;;;8.92;82.21;100159.63;5073179;28;20024;-65
2021/11/14 06:26:29;;;;;;;48.33;27.73;;;;;;;8.91;82.32;100160.47;5074813;28;20537;-63
2021/11/14 06:28:55;;;;;;;46.97;25.88;;;;;;;8.92;82.43;100158.75;5073174;28;20123;-64
2021/11/14 06:31:21;;;;;;;45.20;25.25;;;;;;;8.92;82.39;100158.75;5072987;28;20036;-64
2021/11/14 06:33:46;;;;;;;48.55;25.27;;;;;;;8.92;82.47;100161.34;5073740;28;20032;-64
2021/11/14 06:36:12;;;;;;;51.15;26.30;;;;;;;8.92;82.06;100161.34;5074685;28;20191;-63
2021/11/14 06:38:37;;;;;;;47.70;27.92;;;;;;;8.92;82.13;100171.69;5074564;28;20052;-63
2021/11/14 06:41:03;;;;;;;51.95;25.98;;;;;;;8.92;82.41;100169.09;5056130;28;20047;-64
2021/11/14 06:43:29;;;;;;;44.63;24.92;;;;;;;8.92;82.43;100174.28;5074367;28;20060;-63
2021/11/14 06:45:55;;;;;;;40.80;24.08;;;;;;;8.91;82.13;100170.78;5073799;28;20403;-63
2021/11/14 06:48:22;;;;;;;45.00;24.35;;;;;;;8.91;82.43;100188.03;5056060;28;20036;-64
2021/11/14 06:50:48;;;;;;;45.85;26.33;;;;;;;8.90;82.43;100192.31;5056188;28;20039;-63
2021/11/14 06:53:13;;;;;;;43.80;25.25;;;;;;;8.88;82.30;100193.97;5074357;28;20029;-63
2021/11/14 06:55:39;;;;;;;43.08;23.52;;;;;;;8.90;82.41;100202.66;5074095;28;20409;-64
2021/11/14 06:58:05;;;;;;;44.95;24.27;;;;;;;8.91;82.50;100199.22;5073296;28;20373;-63
2021/11/14 07:00:31;;;;;;;40.88;23.20;;;;;;;8.89;82.67;100211.25;5073887;28;20114;-64
2021/11/14 07:02:57;;;;;;;38.78;22.52;;;;;;;8.91;82.32;100219.91;5055746;28;20036;-63
2021/11/14 07:05:23;;;;;;;38.15;20.48;;;;;;;8.89;82.51;100221.56;5073572;28;20039;-64
2021/11/14 07:07:48;;;;;;;39.15;21.85;;;;;;;8.89;82.24;100221.56;5073825;28;20047;-64
2021/11/14 07:10:16;;;;;;;34.78;21.80;;;;;;;8.89;82.32;100226.75;5072668;28;20093;-64
2021/11/14 07:12:42;;;;;;;37.45;21.80;;;;;;;8.90;82.35;100235.38;5055637;28;20068;-64
2021/11/14 07:15:12;;;;;;;41.03;20.95;;;;;;;8.90;82.49;100238.84;5056100;28;20544;-64
2021/11/14 07:17:38;;;;;;;36.45;20.55;;;;;;;8.87;82.40;100246.53;5073142;28;20036;-64
2021/11/14 07:20:05;;;;;;;40.05;21.95;;;;;;;8.87;82.73;100241.38;5072791;28;20039;-64
2021/11/14 07:22:31;;;;;;;34.60;21.90;;;;;;;8.87;82.26;100254.28;5055620;28;20039;-63
2021/11/14 07:24:56;;;;;;;39.35;22.02;;;;;;;8.87;82.40;100256.88;5073608;28;20032;-64
2021/11/14 07:27:23;;;;;;;36.45;21.48;;;;;;;8.87;82.81;100258.56;5073343;28;20067;-64
2021/11/14 07:29:49;;;;;;;35.17;20.05;;;;;;;8.87;82.40;100258.56;5073663;28;20479;-64
2021/11/14 07:32:15;;;;;;;35.63;19.70;;;;;;;8.87;82.45;100258.56;5055596;28;20040;-64
2021/11/14 07:34:45;;;;;;;39.22;21.10;;;;;;;8.86;82.50;100267.16;5072036;28;20105;-64
2021/11/14 07:37:12;;;;;;;36.17;20.17;;;;;;;8.86;82.39;100257.72;5073313;28;20115;-64
2021/11/14 07:39:38;;;;;;;33.97;18.88;;;;;;;8.85;82.36;100253.38;5055682;28;20059;-64
2021/11/14 07:42:04;;;;;;;35.75;20.20;;;;;;;8.85;82.44;100268.88;5072733;28;20032;-64
2021/11/14 07:44:30;;;;;;;31.92;20.42;;;;;;;8.84;82.33;100273.16;5055314;28;20041;-63
2021/11/14 07:46:56;;;;;;;32.67;21.27;;;;;;;8.84;82.43;100287.81;5072099;28;20040;-63
2021/11/14 07:49:22;;;;;;;32.55;18.92;;;;;;;8.84;82.46;100290.38;5071883;28;20041;-63
2021/11/14 07:52:14;;;;;;;30.73;19.58;;;;;;;8.85;82.43;100292.13;5071367;28;20098;-64
2021/11/14 07:54:39;;;;;;;31.40;19.00;;;;;;;8.84;82.51;100300.72;5055499;28;20041;-63
2021/11/14 07:57:05;;;;;;;31.63;21.00;;;;;;;8.84;82.46;100288.66;5071915;28;20480;-63
2021/11/14 07:59:31;;;;;;;29.13;19.00;;;;;;;8.84;82.17;100282.63;5072674;28;20400;-64
2021/11/14 08:01:56;;;;;;;31.80;20.27;;;;;;;8.84;82.43;100290.38;5071955;28;20123;-64
2021/11/14 08:04:22;;;;;;;31.70;19.00;;;;;;;8.84;82.29;100285.22;5072848;28;20039;-64
2021/11/14 08:06:47;;;;;;;31.45;19.58;;;;;;;8.84;82.41;100280.06;5073438;28;20040;-64
2021/11/14 08:09:13;;;;;;;29.33;20.02;;;;;;;8.83;82.49;100286.06;5073194;28;20037;-64
2021/11/14 08:11:38;;;;;;;30.40;20.17;;;;;;;8.85;82.36;100292.13;5072626;28;20048;-64
2021/11/14 08:14:04;;;;;;;30.15;19.25;;;;;;;8.84;82.39;100292.97;5073093;28;20086;-63
2021/11/14 08:16:30;;;;;;;30.02;19.77;;;;;;;8.85;82.68;100292.13;5075882;28;20036;-63
2021/11/14 08:18:55;;;;;;;29.63;19.55;;;;;;;8.88;82.36;100299.09;5077339;28;20040;-64
2021/11/14 08:21:21;;;;;;;31.45;19.85;;;;;;;8.86;82.33;100303.34;5076950;28;20033;-63
2021/11/14 08:23:50;;;;;;;31.60;19.75;;;;;;;8.86;82.45;100305.94;5076957;28;20499;-63
2021/11/14 08:26:16;;;;;;;28.00;20.15;;;;;;;8.85;82.59;100297.31;5076749;28;20032;-63
2021/11/14 08:28:49;;;;;;;36.35;21.52;;;;;;;8.86;82.33;100308.50;5075794;28;20029;-63
2021/11/14 08:31:20;;;;;;;28.92;19.17;;;;;;;8.85;82.32;100302.47;5077024;28;20029;-63
2021/11/14 08:33:48;;;;;;;32.20;20.75;;;;;;;8.86;82.47;100313.69;5075601;28;20055;-64
2021/11/14 08:36:15;;;;;;;30.75;19.63;;;;;;;8.86;82.58;100314.56;5075542;28;20029;-63
2021/11/14 08:38:41;;;;;;;30.38;20.63;;;;;;;8.86;82.40;100318.84;5075622;28;20040;-63
2021/11/14 08:41:07;;;;;;;29.40;19.65;;;;;;;8.86;82.39;100324.00;5058457;28;20032;-64
2021/11/14 08:43:37;;;;;;;27.73;20.50;;;;;;;8.87;82.49;100333.53;5076616;28;20491;-64
2021/11/14 08:46:05;;;;;;;28.58;19.25;;;;;;;8.88;82.43;100327.53;5058952;28;20137;-63
2021/11/14 08:48:31;;;;;;;26.98;20.45;;;;;;;8.87;82.43;100339.59;5076662;28;20064;-64
2021/11/14 08:50:58;;;;;;;31.88;20.10;;;;;;;8.87;82.49;100337.00;5076327;28;20072;-63
2021/11/14 08:53:24;;;;;;;33.72;20.05;;;;;;;8.88;82.50;100336.13;5075921;28;20028;-62
2021/11/14 08:55:56;;;;;;;32.33;20.58;;;;;;;8.89;82.39;100347.38;5076343;28;20043;-64
2021/11/14 08:58:22;;;;;;;28.77;20.05;;;;;;;8.88;82.53;100343.88;5058458;28;20032;-63
2021/11/14 09:00:54;;;;;;;25.80;20.20;;;;;;;8.88;82.62;100348.19;5075503;28;20158;-63
2021/11/14 09:03:20;;;;;;;27.70;20.55;;;;;;;8.89;82.54;100347.38;5075828;28;20033;-63
2021/11/14 09:05:46;;;;;;;27.67;20.75;;;;;;;8.89;82.27;100344.78;5076065;28;20098;-63
2021/11/14 09:08:12;;;;;;;25.02;18.20;;;;;;;8.91;82.40;100351.75;5076192;28;20117;-63
2021/11/14 09:10:40;;;;;;;32.20;20.85;;;;;;;8.91;82.29;100354.31;5057536;28;20037;-64
2021/11/14 09:13:07;;;;;;;28.55;20.70;;;;;;;8.91;82.50;100348.28;5058840;28;20110;-63
2021/11/14 09:15:33;;;;;;;30.20;22.08;;;;;;;8.93;82.32;100341.47;5058022;28;20491;-64
2021/11/14 09:18:00;;;;;;;28.50;20.92;;;;;;;8.93;82.48;100354.38;5074933;28;20032;-64
2021/11/14 09:20:27;;;;;;;30.10;21.42;;;;;;;8.94;82.20;100356.13;5074378;28;20044;-63
2021/11/14 09:22:54;;;;;;;28.85;20.15;;;;;;;8.92;82.30;100357.81;5057997;28;20036;-65
2021/11/14 09:25:23;;;;;;;30.27;21.67;;;;;;;8.92;82.51;100368.13;5076320;28;20062;-63
2021/11/14 09:27:49;;;;;;;26.20;21.13;;;;;;;8.90;82.53;100370.66;5074854;28;20090;-64
2021/11/14 09:30:18;;;;;;;24.80;19.88;;;;;;;8.92;82.25;100362.97;5074737;28;20480;-64
2021/11/14 09:32:44;;;;;;;29.73;21.15;;;;;;;8.93;82.50;100369.91;5074405;28;20090;-64
2021/11/14 09:35:11;;;;;;;29.20;20.33;;;;;;;8.94;82.01;100375.09;5057694;28;20098;-63
2021/11/14 09:37:37;;;;;;;26.20;21.23;;;;;;;8.94;82.36;100392.31;5057595;28;20039;-63
2021/11/14 09:40:05;;;;;;;26.45;20.25;;;;;;;8.94;82.27;100392.31;5075653;28;20085;-63
2021/11/14 09:42:32;;;;;;;30.90;20.85;;;;;;;8.94;82.28;100389.75;5075520;28;20526;-64
2021/11/14 09:44:58;;;;;;;27.48;19.60;;;;;;;8.95;82.36;100401.84;5074613;28;20158;-63
2021/11/14 09:47:23;;;;;;;27.95;19.92;;;;;;;8.96;82.09;100411.31;5075691;28;20064;-64
2021/11/14 09:49:50;;;;;;;26.65;20.92;;;;;;;8.94;82.07;100415.59;5074944;28;20044;-63
2021/11/14 09:52:16;;;;;;;26.67;21.45;;;;;;;8.93;82.30;100414.69;5057155;28;20040;-64
2021/11/14 09:54:42;;;;;;;25.42;20.17;;;;;;;8.96;82.41;100421.66;5074196;28;20510;-64
2021/11/14 09:57:09;;;;;;;24.40;18.75;;;;;;;8.97;82.24;100426.00;5057864;28;20047;-63
2021/11/14 09:59:35;;;;;;;24.30;18.00;;;;;;;8.96;82.40;100426.81;5057248;28;20032;-63
2021/11/14 10:02:03;;;;;;;22.95;18.25;;;;;;;8.97;82.50;100438.94;5057114;28;20036;-63
2021/11/14 10:04:29;;;;;;;23.90;18.83;;;;;;;8.98;82.12;100431.22;5057524;28;20037;-63
2021/11/14 10:06:56;;;;;;;21.92;18.48;;;;;;;8.98;82.54;100428.66;5074792;28;20537;-64
2021/11/14 10:09:31;;;;;;;25.10;19.98;;;;;;;8.97;82.29;100426.00;5073742;28;20033;-64
2021/11/14 10:11:57;;;;;;;19.70;17.60;;;;;;;8.96;82.12;100426.81;5073393;28;20550;-64
2021/11/14 10:14:23;;;;;;;22.80;16.70;;;;;;;8.96;82.27;100434.59;5073596;28;20449;-64
2021/11/14 10:16:49;;;;;;;20.70;16.27;;;;;;;8.95;82.13;100433.72;5056880;28;20037;-64
2021/11/14 10:19:15;;;;;;;19.63;17.30;;;;;;;8.95;82.03;100436.31;5074648;28;20509;-64
2021/11/14 10:21:45;;;;;;;21.58;17.05;;;;;;;8.96;82.39;100440.66;5074374;28;20568;-64
2021/11/14 10:24:12;;;;;;;21.92;16.73;;;;;;;8.96;82.00;100432.88;5056435;28;20041;-64
2021/11/14 10:26:38;;;;;;;17.92;16.02;;;;;;;8.97;82.38;100442.41;5073484;28;20131;-64
2021/11/14 10:29:10;;;;;;;20.38;15.93;;;;;;;8.97;82.33;100441.50;5073521;28;20040;-64
2021/11/14 10:31:38;;;;;;;17.95;15.10;;;;;;;8.97;82.21;100433.75;5073100;28;20044;-64
2021/11/14 10:34:03;;;;;;;17.42;15.10;;;;;;;8.96;81.87;100442.34;5056266;28;20072;-64
2021/11/14 10:36:32;;;;;;;17.00;15.18;;;;;;;8.95;82.28;100433.72;5074176;28;20068;-64
2021/11/14 10:39:02;;;;;;;18.63;15.68;;;;;;;8.95;82.12;100433.72;5055579;28;20040;-64
2021/11/14 10:41:28;;;;;;;16.45;14.70;;;;;;;8.94;82.19;100434.56;5074573;28;20060;-64
2021/11/14 10:44:18;;;;;;;18.48;15.63;;;;;;;8.93;81.91;100440.56;5073000;28;20068;-64
2021/11/14 10:46:44;;;;;;;19.17;15.10;;;;;;;8.93;82.25;100447.44;5074759;28;20033;-63
2021/11/14 10:49:11;;;;;;;17.05;15.10;;;;;;;8.93;82.03;100457.78;5056907;28;20032;-63
2021/11/14 10:51:38;;;;;;;18.10;14.05;;;;;;;8.92;81.99;100456.03;5056255;28;20039;-63
2021/11/14 10:54:10;;;;;;;42.55;25.83;;;;;;;8.92;82.10;100463.78;5074096;28;20036;-63
2021/11/14 10:56:38;;;;;;;24.67;18.02;;;;;;;8.90;82.16;100463.72;5074706;28;20036;-63
2021/11/14 10:59:05;;;;;;;24.15;17.50;;;;;;;8.92;82.00;100458.63;5055896;28;20036;-63
2021/11/14 11:01:35;;;;;;;20.33;16.63;;;;;;;8.92;82.08;100458.63;5072738;28;20037;-63
2021/11/14 11:04:07;;;;;;;18.90;16.25;;;;;;;8.91;82.18;100468.06;5056702;28;20044;-63
2021/11/14 11:06:33;;;;;;;22.80;14.88;;;;;;;8.91;82.10;100464.63;5057005;28;20048;-63
2021/11/14 11:09:00;;;;;;;19.38;15.32;;;;;;;8.91;82.21;100464.63;5072715;28;20063;-62
2021/11/14 11:11:28;;;;;;;19.58;14.73;;;;;;;8.92;82.07;100459.47;5072428;28;20044;-63
2021/11/14 11:13:57;;;;;;;18.25;14.70;;;;;;;8.92;82.10;100463.78;5073466;28;20511;-64
2021/11/14 11:16:29;;;;;;;18.42;13.80;;;;;;;8.92;81.83;100468.97;5072887;28;20044;-63
2021/11/14 11:19:08;;;;;;;18.23;14.27;;;;;;;8.91;81.84;100456.88;5056564;28;20047;-63
2021/11/14 11:21:44;;;;;;;16.60;13.65;;;;;;;8.94;82.03;100459.53;5071975;28;20037;-63